Terminal Aerodrome Forecast
Issued by NWS

Home | Current Version | Previous Version | Text Only | Print | Product List | Glossary On
Versions: 1 2 3 4 5 6 7 8 9 10 11 12 13 14
000
FTUS42 KMLB 232345
TAFSFB
TAF
KSFB 232345Z 2400/2424 13011KT P6SM SCT250
     FM240200 17004KT P6SM SKC
     FM240800 24006KT P6SM FEW020
     FM241200 27010KT P6SM SCT030
      TEMPO 2413/2415 BKN035
     FM241800 27016G23KT P6SM SCT040=

USA.gov is the U.S. government's official web portal to all federal, state and local government web resources and services.